Dernières infos :  

21/06/2017  Mise à jour des tableaux d'analyses décadaires : rubrique climatologie
06/06/2017 Mise en ligne de la synthèse climatologique de Mai 2017 : 
CLIQUEZ ICI   

Si l'entête du tableau ne s'affiche pas correctement, => actualisez la page (F5 avec Internet Explorer, Chrome...).
Utilisez l'ascenseur sur la droite des lignes du tableau pour faire défiler verticalement les jours du mois.

TABLEAU DES DONNEES COMPLETES NOAA de MAI 2013

DATE TEMPERATURE
sous abri
TEMPARATURE 
au sol
VENT  et  Indice de Refroidissement Eolien  PRECIPITATIONS (en mm/m2)
et Intensité
PRESSION ATMOSPHERIQUE (en hPa) HUMIDITE de l'AIR RADIATIONS SOLAIRES (en W/m2)
Mini Moy. Maxi Mini Moy. Maxi Moyen Rafale I.R.E.
Minii
Précip. jour Cumul mois Intensité Maxi Mini Moy. Maxi Mini Moy. Maxi Pic maxi du jour Total jour
01/05/2013 11.2° 13.4° 16.9° 8.3° 14° 24.4° 1.8km/h dir NNO 19.3km/h dir OSO 9.9° 0.2 0.2   1014.7 1016 1018 75% 90.6% 98% 974 29 066
02/05/2013 9.4° 12.9° 19.2° 7.2° 14° 27.8° 1.8km/h dir N 46.7km/h dir NO 9.2° 2.8 3 9.8mm/h 1012.9 1015.3 1017.2 74% 91.3% 98% 896 37 407
03/05/2013 10.5° 11.4° 12.5° 10° 11.2° 13.9° 2.6km/h dir O 29km/h dir NE 9.1° 26 29 15.2mm/h 1012.7 1015.8 1018.4 89% 94.9% 97% 390 17 092
04/05/2013 9.6° 12.1° 16.2° 6.7° 12.3° 21.1° 1.3km/h dir N 22.5km/h dir NNE 9.6° 2.2 31.2 1.6mm/h 1017.6 1019.6 1021.2 72% 91.2% 97% 737 27 519
05/05/2013 6.6° 13.9° 21.2° 3.9° 15.2° 28.3° 5.6km/h dir N 33.8km/h dir NNO 6.6° 0.4 31.6   1017.3 1019.2 1021.1 53% 81.1% 98% 976 70 551
06/05/2013 10.8° 15.4° 20.8° 7.8° 16.8° 30° 2.7km/h dir NO 19.3km/h dir N 10.8° 0 31.6   1015.7 1016.9 1017.9 54% 77.6% 91% 1199 62 182
07/05/2013 7.4° 15° 23.2° 5.6° 16.5° 32.8° 0.6km/h dir O 14.5km/h dir NO 7.4° 0 31.6   1013.3 1015 1016.5 44% 76.1% 97% 1067 68 252
08/05/2013 7.9° 16.2° 23.6° 5.6° 17.5° 34.4° 0.8km/h dir OSO 30.6km/h dir O 7.9° 0 31.6   1011.5 1013.2 1015.3 46% 73.2% 96% 1192 58 452
09/05/2013 13.6° 16° 20.3° 12.8° 17° 28.3° 1.1km/h dir NO 22.5km/h dir N 12.8° 7.8 39.4 4.6mm/h 1012.8 1014.9 1016.3 64% 86.3% 96% 1088 39 612
10/05/2013 9.8° 13° 16.1° 9.4° 14.8° 27.2° 5km/h dir NO 24.1km/h dir NNO 8.4° 9.8 49.2 15.8mm/h 1014.8 1017.9 1019.7 52% 77.3% 96% 1202 60 980
11/05/2013 10.2° 12.8° 17.5° 8.3° 14° 26.1° 2.3km/h dir NO 19.3km/h dir N 10.2° 0.4 49.6   1017 1018.2 1019.2 52% 76.8% 89% 1023 46 111
12/05/2013 6.9° 11.3° 15.3° 12.3° 27.2° 1km/h dir OSO 20.9km/h dir NNO 7.1° 0.4 50 2.6mm/h 1018.9 1020.3 1022.1 57% 76.8% 92% 1241 43 535
13/05/2013 4.7° 11.8° 18.6° 2.8° 13.8° 28.9° 1.4km/h dir N 16.1km/h dir N 4.8° 0 50   1017.5 1020.6 1022.4 56% 77.6% 96% 1071 64 943
14/05/2013 8.4° 16.3° 24° 6.7° 19.2° 32.8° 4km/h dir SSO 46.7km/h dir S 8.5° 0 50   1002.3 1010.4 1017.7 35% 68.5% 94% 1086 84 746
15/05/2013 9.8° 13.1° 17.2° 9.4° 12.8° 17.2° 4.3km/h dir SSE 45.1km/h dir S 9.3° 23 73 63.2mm/h 1000.7 1001.5 1003 60% 87.3% 95% 376 18 247
16/05/2013 7.4° 8.8° 10.6° 7.2° 8.9° 12.8° 2.4km/h dir NO 17.7km/h dir NO 6.1° 21.4 94.4 9.4mm/h 998.3 999.2 1001.3 87% 94.3% 96% 450 16 075
17/05/2013 9.1° 11.2° 16.2° 8.3° 12.6° 28.3° 0.3km/h dir NE 19.3km/h dir SO 9.1° 4.6 99 3.8mm/h 999.3 1001.7 1005.8 62% 88.4% 97% 1436 41 689
18/05/2013 5.1° 10.9° 16.6° 2.8° 10.5° 21.1° 2.9km/h dir SSO 33.8km/h dir SO 5.1° 9 108 4mm/h 1003.1 1005.5 1007.5 67% 87.8% 97% 515 27 799
19/05/2013 8.1° 11.1° 15.1° 7.2° 11.9° 26.1° 3.7km/h dir S 29km/h dir SSO 7.9° 1.6 109.6 6.2mm/h 1005.7 1009.4 1014.7 68% 85.8% 94% 1179 47 053
20/05/2013 11.4° 15.9° 7.8° 12° 26.1° 1.9km/h dir SSE 22.5km/h dir SSO 4.8 114.4 3.2mm/h 1014.2 1014.9 1015.5 57% 81.9% 94% 1037 35 293
21/05/2013 9.5° 11.1° 13° 8.9° 10.9° 14.4° 3.2km/h dir S 24.1km/h dir S 9.3° 12.4 126.8 6.8mm/h 1012.5 1013.3 1015.2 80% 91.3% 96% 292 19 567
22/05/2013 8.5° 10.1° 11.3° 7.8° 10.3° 15° 5.5km/h dir N 25.7km/h dir N 7.3° 1.2 128 1.2mm/h 1012.5 1014.3 1016.6 85% 91.5% 96% 452 16 939
23/05/2013 5.7° 9.4° 13° 3.9° 10.2° 23.9° 1.1km/h dir NNO 27.4km/h dir NO 5.7° 2.8 130.8 18.2mm/h 1009.7 1012 1016 66% 85.3% 96% 898 37 446
24/05/2013 4.7° 7.6° 13.1° 4.4° 9.4° 27.2° 0.8km/h dir NO 24.1km/h dir ONO 4.7° 4.4 135.2 11mm/h 1011.2 1012.4 1013.7 51% 82% 92% 1257 47 921
25/05/2013 5.3° 7.7° 12.4° 3.9° 8.9° 23.3° 2.7km/h dir NO 27.4km/h dir NE 4.2° 7.2 142.4 6.2mm/h 1009.3 1013.1 1018.6 66% 86.8% 95% 1269 40 177
26/05/2013 5.1° 9.5° 15.2° 2.8° 11.4° 28.9° 1.4km/h dir NO 20.9km/h dir NO 5.1° 0.4 142.8   1016.6 1018.4 1019.7 51% 79.5% 97% 1227 53 002
27/05/2013 3.2° 12.6° 20.5° 1.1° 15.6° 31.7° 1km/h dir NO 19.3km/h dir ONO 3.2° 0 142.8   1007.1 1011.8 1016.6 48% 73.5% 96% 1002 89 875
28/05/2013 8.6° 12.7° 17.4° 7.8° 12.9° 25° 3.9km/h dir S 35.4km/h dir S 8.6° 9.2 152 281mm/h 1002.7 1004.9 1007.2 64% 81.6% 93% 812 32 560
29/05/2013 10.8° 15.6° 7.2° 12.6° 28.9° 1.4km/h dir S 20.9km/h dir NO 7.8° 2.8 154.8 6.4mm/h 1004.7 1005.6 1007.9 53% 79.9% 95% 1093 50 856
30/05/2013 8.2° 10.4° 13.8° 7.2° 11.5° 25° 0.5km/h dir SE 25.7km/h dir O 8.2° 11.8 166.6 523.6mm/h 1007.7 1008.4 1009.2 76% 90.1% 95% 1051 39 125
31/05/2013 9.6° 11.3° 13.1° 8.9° 11.4° 16.7° 4km/h dir NO 30.6km/h dir ONO 9.7° 8.6 175.2 195.2mm/h 1008.8 1010.5 1012.8 85% 93.8% 96% 403 18 887

RETOUR ACCUEIL


Date de création : 12/01/2014 : 16:27
Dernière modification : 09/02/2015 : 18:26
Catégorie : ARCHIVES 2002 à 2016 - ANNEES 2010 à 2019 - ANNEE 2013 - MAI 2013
Page lue 1552 fois


Réactions à cet article

Personne n'a encore laissé de commentaire.
Soyez donc le premier !